createdAt,value
2018-09-19T00:03:36.061Z,98.91
2018-09-19T00:08:32.772Z,99.11
2018-09-19T00:13:28.031Z,99.40
2018-09-19T00:18:24.063Z,99.99
2018-09-19T00:23:20.008Z,99.99
2018-09-19T00:28:16.140Z,99.99
2018-09-19T00:33:12.726Z,99.99
2018-09-19T00:38:09.539Z,99.99
2018-09-19T00:43:06.292Z,99.99
2018-09-19T00:48:01.922Z,99.99
2018-09-19T00:52:58.006Z,99.99
2018-09-19T00:57:54.131Z,99.99
2018-09-19T01:02:50.542Z,99.99
2018-09-19T01:07:46.394Z,99.99
2018-09-19T01:12:42.430Z,99.99
2018-09-19T01:17:39.303Z,99.99
2018-09-19T01:22:34.719Z,99.99
2018-09-19T01:27:30.791Z,99.99
2018-09-19T01:32:28.146Z,99.99
2018-09-19T01:37:23.986Z,99.99
2018-09-19T01:42:19.895Z,99.99
2018-09-19T01:47:15.710Z,99.99
2018-09-19T01:52:12.281Z,99.99
2018-09-19T01:57:08.153Z,99.99
2018-09-19T02:02:04.086Z,99.99
2018-09-19T02:06:59.741Z,99.99
2018-09-19T02:16:56.082Z,99.99
2018-09-19T02:21:52.185Z,99.99
2018-09-19T02:26:48.531Z,99.99
2018-09-19T02:31:44.137Z,99.99
2018-09-19T02:36:39.932Z,99.99
2018-09-19T02:41:36.048Z,99.99
2018-09-19T02:46:31.571Z,99.99
2018-09-19T02:51:27.646Z,99.99
2018-09-19T02:56:23.569Z,99.99
2018-09-19T03:01:20.345Z,99.99
2018-09-19T03:06:15.826Z,99.99
2018-09-19T03:11:11.996Z,99.99
2018-09-19T03:16:07.914Z,99.99
2018-09-19T03:21:03.810Z,99.99
2018-09-19T03:25:59.630Z,99.99
2018-09-19T03:30:55.474Z,99.99
2018-09-19T03:35:52.537Z,99.99
2018-09-19T03:40:48.141Z,99.99
2018-09-19T03:45:43.724Z,99.99
2018-09-19T03:50:39.607Z,99.99
2018-09-19T03:55:35.524Z,99.99
2018-09-19T04:00:32.304Z,99.99
2018-09-19T04:05:27.734Z,99.99
2018-09-19T04:10:24.540Z,99.99
2018-09-19T04:15:20.842Z,99.99
2018-09-19T04:20:16.749Z,99.99
2018-09-19T04:25:12.943Z,99.99
2018-09-19T04:30:08.362Z,99.99
2018-09-19T04:35:03.939Z,99.99
2018-09-19T04:40:00.263Z,99.99
2018-09-19T04:44:56.241Z,99.99
2018-09-19T04:49:51.827Z,99.99
2018-09-19T04:54:48.950Z,99.99
2018-09-19T04:59:44.595Z,99.99
2018-09-19T05:04:40.455Z,99.99
2018-09-19T05:09:37.386Z,99.99
2018-09-19T05:14:33.906Z,99.99
2018-09-19T05:19:29.517Z,99.99
2018-09-19T05:24:25.805Z,99.99
2018-09-19T05:29:21.710Z,99.99
2018-09-19T05:34:17.607Z,99.99
2018-09-19T05:39:15.224Z,99.99
2018-09-19T05:44:10.933Z,99.99
2018-09-19T05:49:07.041Z,99.99
2018-09-19T05:54:03.177Z,99.99
2018-09-19T05:58:59.149Z,99.99
2018-09-19T06:03:55.067Z,99.99
2018-09-19T06:08:51.267Z,99.99
2018-09-19T06:13:47.494Z,99.99
2018-09-19T06:18:43.831Z,99.99
2018-09-19T06:23:39.733Z,99.99
2018-09-19T06:28:35.641Z,99.99
2018-09-19T06:33:31.709Z,99.99
2018-09-19T06:38:28.659Z,99.99
2018-09-19T06:43:24.294Z,99.99
2018-09-19T06:48:20.324Z,99.99
2018-09-19T06:53:17.627Z,99.99
2018-09-19T06:58:13.261Z,99.99
2018-09-19T07:03:10.656Z,99.99
2018-09-19T07:08:07.229Z,99.99
2018-09-19T07:13:02.860Z,99.99
2018-09-19T07:17:58.740Z,99.99
2018-09-19T07:22:54.513Z,99.99
2018-09-19T07:27:51.445Z,99.99
2018-09-19T07:32:47.537Z,99.99
2018-09-19T07:37:44.044Z,99.99
2018-09-19T07:42:40.845Z,99.99
2018-09-19T07:47:36.792Z,99.99
2018-09-19T07:52:33.638Z,99.99
2018-09-19T07:57:29.563Z,99.99
2018-09-19T08:02:27.032Z,96.46
2018-09-19T08:07:23.083Z,95.40
2018-09-19T08:12:19.394Z,93.43
2018-09-19T08:17:15.459Z,91.45
2018-09-19T08:22:12.438Z,90.78
2018-09-19T08:27:08.254Z,89.23
2018-09-19T08:32:04.460Z,89.14
2018-09-19T08:37:00.519Z,88.31
2018-09-19T08:41:56.485Z,88.12
2018-09-19T08:46:52.492Z,87.54
2018-09-19T08:51:48.495Z,86.82
2018-09-19T08:56:45.331Z,86.62
2018-09-19T09:01:41.146Z,86.82
2018-09-19T09:06:37.218Z,86.47
2018-09-19T09:11:33.263Z,86.76
2018-09-19T09:16:29.271Z,86.71
2018-09-19T09:21:25.347Z,86.42
2018-09-19T09:26:22.354Z,86.90
2018-09-19T09:31:17.979Z,87.04
2018-09-19T09:36:14.210Z,86.21
2018-09-19T09:41:10.580Z,86.31
2018-09-19T09:46:08.028Z,85.05
2018-09-19T09:51:04.152Z,83.88
2018-09-19T09:56:00.748Z,83.01
2018-09-19T10:00:56.849Z,82.14
2018-09-19T10:05:52.779Z,82.23
2018-09-19T10:10:48.750Z,80.24
2018-09-19T10:15:44.903Z,79.95
2018-09-19T10:20:41.533Z,78.92
2018-09-19T10:25:38.395Z,79.02
2018-09-19T10:30:34.143Z,78.34
2018-09-19T10:35:30.779Z,77.90
2018-09-19T10:40:27.258Z,76.29
2018-09-19T10:45:23.537Z,75.87
2018-09-19T10:50:19.509Z,75.23
2018-09-19T10:55:15.902Z,74.35
2018-09-19T11:00:11.919Z,75.32
2018-09-19T11:05:08.820Z,73.32
2018-09-19T11:10:06.145Z,71.42
2018-09-19T11:15:02.287Z,71.51
2018-09-19T11:19:59.869Z,71.70
2018-09-19T11:24:56.580Z,71.61
2018-09-19T11:29:52.374Z,72.00
2018-09-19T11:34:47.855Z,73.52
2018-09-19T11:39:44.317Z,73.61
2018-09-19T11:44:40.642Z,73.61
2018-09-19T11:49:37.681Z,73.32
2018-09-19T11:54:33.763Z,72.19
2018-09-19T11:59:30.597Z,71.16
2018-09-19T12:04:27.160Z,70.22
2018-09-19T12:09:24.272Z,69.90
2018-09-19T12:14:19.668Z,71.16
2018-09-19T12:19:15.410Z,70.93
2018-09-19T12:24:10.810Z,72.09
2018-09-19T12:29:07.337Z,73.03
2018-09-19T12:34:02.561Z,74.00
2018-09-19T12:38:59.549Z,73.36
2018-09-19T12:43:56.202Z,73.55
2018-09-19T12:48:51.897Z,73.94
2018-09-19T12:53:47.685Z,75.07
2018-09-19T12:58:43.798Z,74.29
2018-09-19T13:03:39.731Z,73.94
2018-09-19T13:08:36.837Z,73.55
2018-09-19T13:13:32.279Z,72.09
2018-09-19T13:18:29.271Z,71.70
2018-09-19T13:23:25.006Z,71.80
2018-09-19T13:28:21.163Z,70.57
2018-09-19T13:33:17.445Z,70.00
2018-09-19T13:38:13.506Z,68.44
2018-09-19T13:43:09.558Z,68.73
2018-09-19T13:48:05.474Z,68.44
2018-09-19T13:53:01.843Z,67.47
2018-09-19T13:57:58.731Z,64.95
2018-09-19T14:02:54.639Z,63.20
2018-09-19T14:07:51.646Z,63.91
2018-09-19T14:12:47.328Z,63.78
2018-09-19T14:17:44.871Z,63.62
2018-09-19T14:22:40.725Z,63.71
2018-09-19T14:27:36.739Z,64.88
2018-09-19T14:32:32.613Z,65.24
2018-09-19T14:37:29.773Z,65.75
2018-09-19T14:42:25.634Z,65.56
2018-09-19T14:47:22.751Z,64.78
2018-09-19T14:52:20.030Z,64.75
2018-09-19T14:57:15.521Z,64.95
2018-09-19T15:02:11.559Z,65.33
2018-09-19T15:07:08.566Z,65.14
2018-09-19T15:12:04.298Z,64.85
2018-09-19T15:17:00.252Z,65.62
2018-09-19T15:21:56.264Z,65.43
2018-09-19T15:26:52.758Z,65.33
2018-09-19T15:31:49.045Z,65.53
2018-09-19T15:36:45.083Z,64.17
2018-09-19T15:41:40.961Z,61.94
2018-09-19T15:46:38.248Z,62.62
2018-09-19T15:51:34.045Z,62.91
2018-09-19T15:56:30.155Z,63.78
2018-09-19T16:01:26.346Z,64.07
2018-09-19T16:06:22.800Z,63.59
2018-09-19T16:11:18.615Z,64.14
2018-09-19T16:16:15.195Z,63.95
2018-09-19T16:21:11.975Z,64.82
2018-09-19T16:26:07.676Z,64.62
2018-09-19T16:31:03.695Z,64.59
2018-09-19T16:35:59.695Z,65.11
2018-09-19T16:40:55.606Z,65.56
2018-09-19T16:45:51.568Z,65.17
2018-09-19T16:50:47.760Z,65.85
2018-09-19T16:55:43.539Z,65.82
2018-09-19T17:00:39.481Z,66.02
2018-09-19T17:05:36.744Z,66.08
2018-09-19T17:15:32.924Z,67.63
2018-09-19T17:20:29.644Z,67.50
2018-09-19T17:25:25.035Z,68.76
2018-09-19T17:30:20.979Z,69.53
2018-09-19T17:35:16.762Z,70.56
2018-09-19T17:40:12.651Z,70.76
2018-09-19T17:45:08.427Z,71.72
2018-09-19T17:50:05.682Z,72.36
2018-09-19T17:55:02.151Z,73.04
2018-09-19T17:59:57.688Z,73.53
2018-09-19T18:04:53.457Z,73.88
2018-09-19T18:09:49.257Z,74.17
2018-09-19T18:14:45.460Z,73.39
2018-09-19T18:19:42.427Z,73.26
2018-09-19T18:24:38.112Z,73.84
2018-09-19T18:29:34.997Z,73.74
2018-09-19T18:34:31.759Z,72.58
2018-09-19T18:39:27.397Z,72.39
2018-09-19T18:44:23.319Z,72.94
2018-09-19T18:49:19.133Z,73.13
2018-09-19T18:54:15.001Z,72.13
2018-09-19T18:59:11.228Z,71.74
2018-09-19T19:04:07.943Z,72.42
2018-09-19T19:09:03.969Z,72.61
2018-09-19T19:13:59.947Z,72.42
2018-09-19T19:18:56.685Z,72.13
2018-09-19T19:23:52.385Z,72.67
2018-09-19T19:28:48.565Z,73.44
2018-09-19T19:33:44.431Z,74.02
2018-09-19T19:38:40.243Z,74.37
2018-09-19T19:43:36.056Z,75.34
2018-09-19T19:48:31.949Z,75.43
2018-09-19T19:53:27.680Z,76.68
2018-09-19T19:58:23.696Z,76.93
2018-09-19T20:03:20.611Z,77.23
2018-09-19T20:08:16.199Z,77.81
2018-09-19T20:13:12.069Z,78.19
2018-09-19T20:18:08.151Z,79.35
2018-09-19T20:23:04.088Z,79.16
2018-09-19T20:27:59.959Z,79.50
2018-09-19T20:32:55.730Z,80.27
2018-09-19T20:37:51.769Z,80.18
2018-09-19T20:42:48.527Z,80.37
2018-09-19T20:47:44.225Z,81.24
2018-09-19T20:52:40.170Z,81.62
2018-09-19T20:57:35.761Z,82.10
2018-09-19T21:02:32.595Z,83.16
2018-09-19T21:07:28.871Z,82.87
2018-09-19T21:12:24.712Z,82.45
2018-09-19T21:17:20.541Z,82.39
2018-09-19T21:22:16.663Z,82.45
2018-09-19T21:27:12.886Z,82.06
2018-09-19T21:32:08.899Z,82.45
2018-09-19T21:37:04.853Z,83.51
2018-09-19T21:42:01.165Z,83.70
2018-09-19T21:46:57.813Z,83.41
2018-09-19T21:51:53.468Z,84.37
2018-09-19T21:56:50.068Z,84.91
2018-09-19T22:01:45.943Z,85.00
2018-09-19T22:06:41.809Z,85.78
2018-09-19T22:11:38.737Z,86.35
2018-09-19T22:16:35.918Z,87.03
2018-09-19T22:21:31.640Z,86.99
2018-09-19T22:26:28.759Z,86.89
2018-09-19T22:31:25.314Z,87.66
2018-09-19T22:36:21.762Z,87.22
2018-09-19T22:41:18.306Z,87.56
2018-09-19T22:46:13.831Z,86.99
2018-09-19T22:51:10.830Z,87.95
2018-09-19T22:56:06.489Z,87.37
2018-09-19T23:01:02.387Z,87.46
2018-09-19T23:05:58.798Z,87.66
2018-09-19T23:10:55.432Z,88.33
2018-09-19T23:15:50.984Z,88.43
2018-09-19T23:20:48.006Z,88.62
2018-09-19T23:25:43.599Z,88.43
2018-09-19T23:30:40.503Z,89.20
2018-09-19T23:35:36.084Z,89.39
2018-09-19T23:40:31.952Z,89.49
2018-09-19T23:45:27.922Z,90.16
2018-09-19T23:50:24.207Z,90.21
2018-09-19T23:55:21.079Z,91.17
